createdAt,value
2019-02-02T00:04:25.287Z,84.80
2019-02-02T00:06:51.529Z,84.63
2019-02-02T00:09:17.786Z,84.69
2019-02-02T00:11:44.033Z,84.65
2019-02-02T00:14:10.269Z,84.77
2019-02-02T00:16:36.553Z,84.73
2019-02-02T00:19:24.393Z,84.68
2019-02-02T00:21:50.542Z,84.72
2019-02-02T00:24:16.790Z,84.56
2019-02-02T00:26:43.020Z,84.78
2019-02-02T00:29:50.578Z,84.70
2019-02-02T00:32:16.819Z,84.82
2019-02-02T00:37:33.668Z,84.61
2019-02-02T00:39:59.897Z,84.75
2019-02-02T00:42:26.700Z,84.78
2019-02-02T00:44:52.939Z,84.61
2019-02-02T00:47:19.182Z,84.63
2019-02-02T00:49:45.424Z,84.71
2019-02-02T00:52:11.569Z,84.85
2019-02-02T00:54:37.813Z,84.61
2019-02-02T00:57:04.253Z,84.62
2019-02-02T00:59:30.523Z,84.80
2019-02-02T01:01:56.646Z,84.79
2019-02-02T01:04:22.945Z,84.83
2019-02-02T01:06:49.171Z,84.84
2019-02-02T01:12:13.250Z,84.96
2019-02-02T01:14:39.548Z,85.10
2019-02-02T01:17:05.760Z,85.10
2019-02-02T01:19:31.997Z,85.14
2019-02-02T01:21:58.342Z,85.32
2019-02-02T01:24:24.485Z,85.39
2019-02-02T01:26:50.827Z,85.40
2019-02-02T01:29:17.175Z,85.43
2019-02-02T01:31:43.441Z,85.50
2019-02-02T01:34:09.673Z,85.70
2019-02-02T01:36:35.824Z,85.71
2019-02-02T01:41:56.499Z,85.58
2019-02-02T01:47:00.119Z,85.61
2019-02-02T01:49:26.447Z,85.57
2019-02-02T01:51:52.694Z,85.47
2019-02-02T01:54:18.869Z,85.81
2019-02-02T01:56:45.090Z,85.60
2019-02-02T01:59:11.386Z,85.61
2019-02-02T02:01:37.616Z,85.63
2019-02-02T02:06:57.590Z,85.65
2019-02-02T02:09:23.828Z,85.62
2019-02-02T02:11:50.081Z,85.49
2019-02-02T02:14:16.339Z,85.38
2019-02-02T02:16:42.582Z,85.20
2019-02-02T02:19:08.812Z,85.18
2019-02-02T02:21:35.046Z,85.10
2019-02-02T02:24:01.272Z,85.03
2019-02-02T02:26:27.508Z,85.23
2019-02-02T02:28:53.739Z,85.17
2019-02-02T02:31:19.973Z,85.08
2019-02-02T02:33:46.202Z,85.09
2019-02-02T02:36:12.332Z,85.05
2019-02-02T02:38:38.459Z,85.16
2019-02-02T02:41:04.709Z,85.12
2019-02-02T02:43:30.840Z,85.20
2019-02-02T02:45:56.986Z,85.27
2019-02-02T02:48:23.218Z,85.30
2019-02-02T02:50:49.447Z,85.36
2019-02-02T02:53:15.686Z,85.44
2019-02-02T02:55:41.914Z,85.41
2019-02-02T02:58:08.157Z,85.35
2019-02-02T03:00:34.422Z,85.18
2019-02-02T03:03:00.545Z,85.17
2019-02-02T03:05:26.859Z,85.19
2019-02-02T03:08:34.425Z,85.01
2019-02-02T03:11:00.666Z,85.08
2019-02-02T03:13:26.803Z,85.01
2019-02-02T03:15:53.041Z,84.94
2019-02-02T03:18:19.270Z,84.89
2019-02-02T03:20:45.495Z,84.98
2019-02-02T03:23:11.729Z,85.10
2019-02-02T03:25:37.988Z,85.15
2019-02-02T03:28:04.218Z,85.11
2019-02-02T03:30:30.342Z,85.00
2019-02-02T03:32:56.595Z,85.02
2019-02-02T03:38:36.372Z,85.14
2019-02-02T03:41:02.612Z,85.00
2019-02-02T03:43:28.928Z,85.19
2019-02-02T03:45:55.081Z,84.95
2019-02-02T03:48:21.231Z,84.97
2019-02-02T03:50:47.455Z,84.97
2019-02-02T03:53:13.697Z,84.97
2019-02-02T03:55:39.827Z,84.64
2019-02-02T03:58:06.087Z,84.57
2019-02-02T04:00:32.310Z,84.55
2019-02-02T04:02:58.550Z,84.69
2019-02-02T04:05:46.262Z,84.68
2019-02-02T04:08:12.493Z,84.73
2019-02-02T04:10:38.736Z,84.70
2019-02-02T04:13:04.990Z,84.84
2019-02-02T04:15:31.213Z,84.67
2019-02-02T04:17:57.356Z,84.62
2019-02-02T04:20:23.576Z,84.63
2019-02-02T04:23:31.143Z,84.62
2019-02-02T04:28:45.070Z,84.62
2019-02-02T04:31:11.298Z,84.58
2019-02-02T04:33:37.558Z,84.56
2019-02-02T04:36:03.790Z,84.61
2019-02-02T04:38:30.029Z,84.54
2019-02-02T04:40:56.267Z,84.56
2019-02-02T04:43:22.503Z,84.61
2019-02-02T04:45:48.742Z,84.81
2019-02-02T04:48:14.980Z,84.80
2019-02-02T04:50:41.210Z,84.76
2019-02-02T04:53:07.506Z,84.85
2019-02-02T04:55:33.724Z,84.83
2019-02-02T04:57:59.947Z,84.90
2019-02-02T05:01:07.584Z,84.95
2019-02-02T05:03:33.825Z,85.06
2019-02-02T05:06:00.045Z,85.12
2019-02-02T05:08:26.300Z,85.17
2019-02-02T05:10:52.446Z,85.21
2019-02-02T05:13:18.683Z,85.14
2019-02-02T05:15:44.927Z,85.17
2019-02-02T05:18:11.168Z,85.26
2019-02-02T05:20:37.400Z,85.40
2019-02-02T05:23:03.630Z,85.35
2019-02-02T05:25:29.778Z,85.45
2019-02-02T05:27:56.083Z,85.39
2019-02-02T05:31:03.626Z,85.42
2019-02-02T05:33:29.854Z,85.46
2019-02-02T05:35:56.161Z,85.49
2019-02-02T05:38:22.404Z,85.36
2019-02-02T05:40:48.670Z,85.42
2019-02-02T05:43:14.960Z,85.22
2019-02-02T05:45:41.222Z,85.25
2019-02-02T05:48:07.460Z,85.21
2019-02-02T05:50:33.712Z,85.42
2019-02-02T05:52:59.999Z,85.24
2019-02-02T05:55:26.158Z,85.25
2019-02-02T05:57:52.409Z,85.12
2019-02-02T06:03:14.460Z,85.30
2019-02-02T06:05:40.708Z,85.12
2019-02-02T06:08:06.964Z,85.21
2019-02-02T06:10:33.082Z,85.12
2019-02-02T06:12:59.317Z,85.07
2019-02-02T06:15:28.480Z,85.22
2019-02-02T06:17:53.685Z,85.18
2019-02-02T06:20:19.925Z,85.22
2019-02-02T06:22:46.160Z,85.27
2019-02-02T06:25:32.046Z,85.24
2019-02-02T06:27:58.274Z,85.39
2019-02-02T06:30:24.412Z,85.40
2019-02-02T06:32:50.778Z,85.50
2019-02-02T06:35:58.289Z,85.49
2019-02-02T06:38:24.536Z,85.45
2019-02-02T06:40:50.784Z,85.45
2019-02-02T06:43:17.030Z,85.40
2019-02-02T06:45:43.277Z,85.43
2019-02-02T06:48:09.510Z,85.42
2019-02-02T06:50:35.737Z,85.40
2019-02-02T06:53:23.543Z,85.48
2019-02-02T06:55:49.779Z,85.73
2019-02-02T06:58:16.005Z,85.69
2019-02-02T07:00:42.237Z,85.83
2019-02-02T07:05:45.919Z,85.61
2019-02-02T07:08:12.154Z,85.76
2019-02-02T07:10:38.374Z,85.94
2019-02-02T07:13:04.625Z,85.99
2019-02-02T07:15:30.794Z,86.04
2019-02-02T07:17:57.039Z,86.16
2019-02-02T07:20:23.268Z,86.25
2019-02-02T07:22:49.506Z,86.32
2019-02-02T07:25:15.734Z,86.51
2019-02-02T07:27:41.967Z,86.58
2019-02-02T07:33:21.949Z,86.62
2019-02-02T07:35:48.169Z,86.56
2019-02-02T07:38:14.413Z,86.59
2019-02-02T07:40:40.643Z,86.78
2019-02-02T07:43:06.891Z,86.89
2019-02-02T07:45:33.114Z,86.84
2019-02-02T07:47:59.345Z,86.93
2019-02-02T07:50:25.681Z,86.98
2019-02-02T07:52:51.931Z,87.11
2019-02-02T07:55:59.488Z,87.06
2019-02-02T07:58:25.721Z,86.95
2019-02-02T08:00:51.954Z,86.80
2019-02-02T08:03:18.195Z,86.66
2019-02-02T08:05:44.429Z,86.58
2019-02-02T08:08:10.674Z,86.62
2019-02-02T08:10:36.797Z,86.59
2019-02-02T08:13:44.354Z,86.56
2019-02-02T08:16:10.596Z,86.53
2019-02-02T08:18:36.840Z,86.69
2019-02-02T08:24:16.676Z,86.90
2019-02-02T08:26:42.902Z,86.99
2019-02-02T08:29:09.136Z,86.90
2019-02-02T08:31:35.372Z,86.89
2019-02-02T08:34:01.717Z,86.69
2019-02-02T08:36:27.940Z,86.51
2019-02-02T08:38:54.089Z,86.54
2019-02-02T08:41:20.320Z,86.69
2019-02-02T08:43:46.457Z,86.84
2019-02-02T08:46:12.691Z,86.90
2019-02-02T08:48:38.936Z,87.10
2019-02-02T08:51:05.169Z,87.31
2019-02-02T08:53:31.406Z,87.39
2019-02-02T08:55:57.640Z,87.50
2019-02-02T08:58:23.918Z,87.53
2019-02-02T09:00:50.121Z,87.53
2019-02-02T09:03:16.349Z,87.61
2019-02-02T09:05:42.616Z,87.65
2019-02-02T09:08:08.811Z,87.79
2019-02-02T09:10:35.065Z,87.55
2019-02-02T09:13:01.189Z,87.68
2019-02-02T09:16:08.758Z,87.64
2019-02-02T09:18:35.001Z,87.66
2019-02-02T09:21:01.146Z,87.74
2019-02-02T09:23:27.376Z,87.81
2019-02-02T09:25:53.518Z,87.76
2019-02-02T09:28:19.743Z,87.79
2019-02-02T09:30:45.986Z,87.45
2019-02-02T09:33:12.249Z,86.71
2019-02-02T09:35:38.478Z,86.43
2019-02-02T09:38:04.707Z,86.35
2019-02-02T09:40:30.964Z,86.52
2019-02-02T09:42:57.203Z,86.45
2019-02-02T09:46:04.892Z,86.29
2019-02-02T09:48:31.120Z,86.01
2019-02-02T09:50:57.257Z,86.05
2019-02-02T09:53:23.498Z,85.76
2019-02-02T09:55:49.720Z,85.87
2019-02-02T09:58:15.956Z,85.74
2019-02-02T10:00:42.322Z,85.85
2019-02-02T10:03:08.555Z,85.83
2019-02-02T10:05:34.797Z,86.04
2019-02-02T10:08:01.026Z,86.11
2019-02-02T10:10:48.808Z,86.29
2019-02-02T10:13:15.045Z,86.39
2019-02-02T10:15:41.329Z,86.50
2019-02-02T10:18:07.567Z,86.58
2019-02-02T10:20:33.812Z,86.74
2019-02-02T10:22:59.963Z,86.82
2019-02-02T10:28:26.807Z,86.83
2019-02-02T10:30:53.040Z,86.69
2019-02-02T10:33:19.387Z,86.57
2019-02-02T10:35:45.610Z,86.61
2019-02-02T10:38:12.017Z,86.62
2019-02-02T10:40:38.161Z,86.68
2019-02-02T10:43:04.410Z,86.57
2019-02-02T10:45:30.641Z,86.53
2019-02-02T10:47:56.882Z,86.48
2019-02-02T10:53:13.212Z,86.52
2019-02-02T10:55:39.451Z,86.51
2019-02-02T10:58:47.125Z,86.27
2019-02-02T11:01:13.331Z,86.30
2019-02-02T11:03:39.583Z,85.78
2019-02-02T11:09:13.155Z,85.71
2019-02-02T11:11:39.515Z,85.68
2019-02-02T11:14:06.013Z,85.93
2019-02-02T11:16:32.314Z,85.77
2019-02-02T11:18:58.442Z,85.85
2019-02-02T11:21:24.732Z,85.81
2019-02-02T11:23:51.028Z,85.95
2019-02-02T11:29:26.434Z,85.93
2019-02-02T11:32:02.507Z,85.93
2019-02-02T11:34:20.817Z,86.01
2019-02-02T11:36:47.052Z,86.19
2019-02-02T11:39:13.301Z,86.08
2019-02-02T11:41:39.530Z,86.09
2019-02-02T11:44:05.807Z,85.98
2019-02-02T11:46:31.935Z,86.07
2019-02-02T11:48:58.186Z,85.99
2019-02-02T11:51:24.443Z,86.00
2019-02-02T11:53:50.676Z,86.13
2019-02-02T11:56:16.902Z,86.03
2019-02-02T11:58:43.146Z,86.00
2019-02-02T12:01:09.375Z,85.98
2019-02-02T12:03:35.620Z,85.83
2019-02-02T12:06:01.847Z,85.92
2019-02-02T12:08:28.135Z,85.96
2019-02-02T12:10:54.279Z,86.20
2019-02-02T12:13:20.529Z,86.04
2019-02-02T12:15:54.585Z,86.02
2019-02-02T12:18:20.832Z,85.93
2019-02-02T12:20:47.061Z,86.00
2019-02-02T12:23:13.203Z,85.82
2019-02-02T12:25:39.449Z,85.76
2019-02-02T12:28:05.700Z,85.91
2019-02-02T12:31:13.270Z,85.92
2019-02-02T12:33:39.882Z,85.90
2019-02-02T12:36:06.119Z,85.85
2019-02-02T12:38:32.363Z,86.00
2019-02-02T12:40:59.818Z,85.86
2019-02-02T12:45:54.694Z,86.02
2019-02-02T12:51:34.495Z,86.10
2019-02-02T12:54:00.760Z,86.07
2019-02-02T12:56:26.994Z,86.18
2019-02-02T12:58:53.152Z,86.06
2019-02-02T13:01:19.410Z,86.18
2019-02-02T13:03:45.640Z,86.02
2019-02-02T13:06:11.886Z,85.99
2019-02-02T13:08:38.099Z,85.93
2019-02-02T13:11:04.331Z,86.20
2019-02-02T13:13:30.570Z,86.07
2019-02-02T13:15:56.814Z,85.94
2019-02-02T13:18:23.048Z,86.14
2019-02-02T13:20:49.292Z,85.80
2019-02-02T13:23:15.513Z,86.02
2019-02-02T13:25:41.766Z,85.92
2019-02-02T13:28:07.892Z,85.80
2019-02-02T13:31:20.839Z,85.67
2019-02-02T13:33:43.512Z,85.94
2019-02-02T13:36:09.747Z,85.83
2019-02-02T13:38:35.977Z,85.67
2019-02-02T13:41:02.322Z,86.03
2019-02-02T13:43:28.550Z,85.85
2019-02-02T13:45:54.692Z,85.97
2019-02-02T13:48:20.938Z,85.83
2019-02-02T13:50:47.156Z,85.75
2019-02-02T13:53:13.332Z,85.83
2019-02-02T13:55:40.027Z,85.91
2019-02-02T13:58:07.778Z,85.77
2019-02-02T14:00:34.062Z,85.66
2019-02-02T14:03:03.323Z,85.66
2019-02-02T14:05:28.523Z,85.95
2019-02-02T14:08:36.067Z,85.77
2019-02-02T14:11:02.313Z,85.92
2019-02-02T14:13:28.567Z,85.60
2019-02-02T14:15:54.699Z,85.75
2019-02-02T14:18:20.948Z,85.92
2019-02-02T14:20:47.278Z,85.60
2019-02-02T14:23:13.541Z,85.53
2019-02-02T14:25:39.762Z,85.65
2019-02-02T14:28:05.992Z,85.59
2019-02-02T14:30:32.378Z,85.41
2019-02-02T14:32:58.599Z,85.47
2019-02-02T14:36:06.149Z,85.54
2019-02-02T14:38:32.421Z,85.66
2019-02-02T14:40:58.652Z,85.55
2019-02-02T14:43:24.893Z,85.69
2019-02-02T14:45:51.123Z,85.49
2019-02-02T14:51:11.799Z,85.53
2019-02-02T14:53:38.068Z,85.58
2019-02-02T14:56:04.290Z,85.55
2019-02-02T14:58:30.432Z,85.57
2019-02-02T15:00:56.674Z,85.46
2019-02-02T15:03:25.715Z,85.76
2019-02-02T15:05:51.047Z,85.52
2019-02-02T15:08:17.293Z,85.92
2019-02-02T15:10:43.521Z,85.66
2019-02-02T15:13:09.792Z,85.83
2019-02-02T15:15:36.026Z,85.77
2019-02-02T15:18:02.278Z,85.50
2019-02-02T15:21:09.818Z,85.67
2019-02-02T15:23:35.955Z,85.82
2019-02-02T15:26:02.240Z,85.77
2019-02-02T15:31:22.256Z,85.78
2019-02-02T15:33:48.509Z,85.99
2019-02-02T15:36:14.759Z,85.84
2019-02-02T15:38:41.018Z,85.94
2019-02-02T15:41:07.253Z,86.08
2019-02-02T15:43:33.478Z,86.18
2019-02-02T15:45:59.716Z,86.34
2019-02-02T15:48:25.955Z,86.47
2019-02-02T15:50:52.297Z,86.65
2019-02-02T15:53:18.565Z,86.52
2019-02-02T15:55:44.793Z,86.38
2019-02-02T15:58:11.020Z,86.34
2019-02-02T16:00:37.262Z,86.43
2019-02-02T16:06:04.230Z,86.69
2019-02-02T16:08:30.458Z,86.75
2019-02-02T16:10:56.710Z,86.76
2019-02-02T16:13:22.933Z,86.65
2019-02-02T16:15:49.097Z,86.72
2019-02-02T16:18:15.325Z,86.72
2019-02-02T16:21:22.866Z,86.75
2019-02-02T16:23:49.100Z,86.69
2019-02-02T16:26:15.353Z,86.74
2019-02-02T16:28:41.587Z,87.09
2019-02-02T16:31:07.861Z,86.99
2019-02-02T16:33:34.084Z,86.98
2019-02-02T16:36:00.317Z,86.89
2019-02-02T16:38:26.556Z,86.91
2019-02-02T16:40:52.792Z,86.95
2019-02-02T16:43:19.019Z,87.10
2019-02-02T16:45:45.268Z,87.10
2019-02-02T16:48:11.493Z,87.01
2019-02-02T16:50:37.740Z,87.11
2019-02-02T16:53:03.965Z,87.19
2019-02-02T16:55:30.204Z,87.29
2019-02-02T16:57:56.437Z,87.19
2019-02-02T17:01:03.990Z,87.21
2019-02-02T17:03:30.245Z,87.30
2019-02-02T17:05:56.504Z,87.26
2019-02-02T17:08:22.857Z,87.20
2019-02-02T17:10:49.085Z,87.28
2019-02-02T17:13:15.319Z,87.30
2019-02-02T17:15:41.579Z,87.09
2019-02-02T17:18:07.801Z,87.23
2019-02-02T17:20:53.697Z,87.02
2019-02-02T17:23:20.035Z,86.94
2019-02-02T17:25:46.274Z,86.89
2019-02-02T17:28:12.516Z,87.12
2019-02-02T17:30:38.748Z,87.06
2019-02-02T17:33:26.556Z,86.95
2019-02-02T17:35:52.941Z,86.96
2019-02-02T17:38:19.268Z,86.91
2019-02-02T17:43:33.119Z,86.90
2019-02-02T17:45:59.377Z,86.98
2019-02-02T17:48:25.619Z,86.97
2019-02-02T17:50:51.863Z,86.78
2019-02-02T17:53:18.008Z,87.10
2019-02-02T17:55:44.246Z,86.99
2019-02-02T17:58:13.322Z,86.90
2019-02-02T18:03:35.168Z,87.10
2019-02-02T18:06:01.401Z,87.19
2019-02-02T18:08:27.564Z,87.28
2019-02-02T18:10:53.756Z,87.28
2019-02-02T18:13:19.993Z,87.35
2019-02-02T18:15:46.235Z,87.56
2019-02-02T18:18:12.482Z,87.61
2019-02-02T18:20:38.707Z,87.49
2019-02-02T18:23:04.961Z,87.46
2019-02-02T18:25:31.199Z,87.64
2019-02-02T18:27:57.444Z,87.62
2019-02-02T18:33:37.261Z,87.65
2019-02-02T18:36:03.499Z,87.52
2019-02-02T18:38:29.748Z,87.48
2019-02-02T18:40:55.989Z,87.50
2019-02-02T18:43:22.129Z,87.65
2019-02-02T18:45:48.357Z,87.69
2019-02-02T18:48:14.603Z,87.77
2019-02-02T18:50:40.743Z,87.77
2019-02-02T18:53:07.029Z,87.65
2019-02-02T18:56:14.585Z,87.69
2019-02-02T18:58:40.975Z,87.77
2019-02-02T19:01:07.104Z,87.71
2019-02-02T19:03:33.254Z,87.77
2019-02-02T19:05:59.480Z,87.84
2019-02-02T19:08:25.735Z,87.97
2019-02-02T19:10:51.960Z,88.05
2019-02-02T19:13:18.193Z,88.31
2019-02-02T19:15:44.459Z,88.48
2019-02-02T19:18:10.676Z,88.31
2019-02-02T19:20:36.934Z,88.42
2019-02-02T19:26:16.500Z,88.23
2019-02-02T19:28:42.731Z,88.08
2019-02-02T19:31:08.970Z,87.84
2019-02-02T19:33:35.117Z,87.95
2019-02-02T19:36:01.366Z,87.97
2019-02-02T19:38:27.497Z,88.21
2019-02-02T19:40:53.750Z,88.00
2019-02-02T19:43:19.977Z,88.02
2019-02-02T19:45:46.224Z,88.02
2019-02-02T19:48:12.452Z,87.95
2019-02-02T19:50:38.596Z,87.89
2019-02-02T19:53:04.941Z,88.14
2019-02-02T19:55:31.273Z,87.97
2019-02-02T19:57:57.415Z,88.00
2019-02-02T20:01:04.968Z,88.02
2019-02-02T20:03:31.097Z,87.87
2019-02-02T20:05:57.234Z,88.06
2019-02-02T20:08:23.461Z,88.11
2019-02-02T20:10:49.635Z,88.41
2019-02-02T20:13:15.855Z,88.16
2019-02-02T20:15:42.105Z,88.21
2019-02-02T20:18:10.296Z,87.93
2019-02-02T20:20:36.501Z,88.03
2019-02-02T20:23:44.034Z,88.04
2019-02-02T20:26:10.308Z,87.92
2019-02-02T20:28:36.533Z,88.06
2019-02-02T20:31:02.897Z,87.94
2019-02-02T20:33:29.135Z,88.00
2019-02-02T20:35:55.384Z,87.97
2019-02-02T20:38:21.634Z,88.20
2019-02-02T20:40:47.891Z,88.08
2019-02-02T20:43:14.126Z,88.21
2019-02-02T20:45:40.364Z,88.10
2019-02-02T20:48:06.608Z,88.08
2019-02-02T20:50:32.839Z,88.16
2019-02-02T20:52:59.077Z,88.32
2019-02-02T20:58:39.103Z,88.33
2019-02-02T21:01:05.352Z,88.14
2019-02-02T21:03:31.774Z,87.96
2019-02-02T21:05:58.012Z,88.13
2019-02-02T21:08:24.156Z,88.00
2019-02-02T21:10:50.405Z,87.93
2019-02-02T21:13:16.532Z,88.06
2019-02-02T21:15:42.764Z,88.11
2019-02-02T21:18:11.839Z,88.25
2019-02-02T21:20:37.129Z,88.44
2019-02-02T21:23:03.470Z,88.43
2019-02-02T21:25:29.707Z,88.34
2019-02-02T21:28:15.700Z,88.30
2019-02-02T21:30:41.960Z,88.17
2019-02-02T21:33:08.203Z,88.36
2019-02-02T21:35:34.437Z,88.32
2019-02-02T21:38:00.578Z,88.40
2019-02-02T21:43:40.952Z,88.39
2019-02-02T21:46:07.294Z,88.57
2019-02-02T21:48:36.228Z,88.70
2019-02-02T21:53:29.624Z,88.75
2019-02-02T21:55:55.753Z,88.57
2019-02-02T21:58:21.904Z,88.63
2019-02-02T22:00:48.139Z,88.30
2019-02-02T22:03:14.382Z,88.27
2019-02-02T22:05:40.513Z,88.10
2019-02-02T22:11:00.944Z,88.38
2019-02-02T22:13:27.187Z,88.35
2019-02-02T22:15:53.424Z,88.16
2019-02-02T22:18:21.753Z,87.88
2019-02-02T22:20:47.797Z,87.92
2019-02-02T22:23:14.148Z,87.97
2019-02-02T22:25:40.375Z,87.84
2019-02-02T22:28:06.607Z,87.63
2019-02-02T22:31:14.162Z,87.86
2019-02-02T22:33:40.407Z,87.79
2019-02-02T22:36:06.637Z,87.78
2019-02-02T22:38:32.784Z,87.91
2019-02-02T22:40:58.933Z,87.76
2019-02-02T22:43:25.163Z,87.76
2019-02-02T22:45:53.220Z,87.80
2019-02-02T22:48:19.363Z,87.74
2019-02-02T22:50:45.612Z,87.63
2019-02-02T22:53:11.850Z,87.78
2019-02-02T22:55:37.993Z,87.85
2019-02-02T22:58:04.226Z,87.96
2019-02-02T23:01:11.771Z,87.79
2019-02-02T23:10:18.901Z,87.85
2019-02-02T23:16:18.119Z,88.05
2019-02-02T23:18:46.802Z,87.97
2019-02-02T23:21:12.520Z,88.16
2019-02-02T23:23:38.759Z,88.08
2019-02-02T23:26:04.897Z,88.09
2019-02-02T23:28:31.132Z,88.08
2019-02-02T23:30:57.368Z,87.88
2019-02-02T23:33:23.609Z,87.86
2019-02-02T23:35:49.845Z,87.88
2019-02-02T23:38:16.083Z,87.76
2019-02-02T23:40:42.308Z,88.05
2019-02-02T23:43:08.544Z,88.13
2019-02-02T23:45:34.774Z,88.03
2019-02-02T23:48:42.399Z,87.69
2019-02-02T23:51:08.641Z,87.78
2019-02-02T23:53:34.794Z,87.90
2019-02-02T23:56:01.045Z,87.54
2019-02-02T23:58:27.197Z,87.73
